BAW41F EGPH-EGCC
Flight info
| Callsign | BAW41F |
|---|---|
| Flight time | 0h 41m |
| Altitude | 25000 |
| Route | GOSAM P600 FENIK L612 LAKEY |
| Aircraft | A320/M-SDE3FGHIRWY/LB1 |
Departure
| Time | 2026-05-01 14:40 |
|---|---|
| Airport | Edinburgh Airport (EGPH) |
Arrival
| Time | 2026-05-01 15:21 |
|---|---|
| Airport | Manchester Airport (EGCC) |
| Time | Latitude | Longitude | Altitude | Speed | Heading |
|---|---|---|---|---|---|
| 2026-05-01 14:12 | 55.94854 | -3.36604 | 116 ft | 0 kts | 145° |
| 2026-05-01 14:15 | 55.94855 | -3.36604 | 116 ft | 0 kts | 145° |
| 2026-05-01 14:30 | 55.94906 | -3.36673 | 112 ft | 4 kts | 111° |
| 2026-05-01 14:30 | 55.94906 | -3.36714 | 113 ft | 4 kts | 62° |
| 2026-05-01 14:30 | 55.94900 | -3.36732 | 112 ft | 1 kts | 59° |
| 2026-05-01 14:33 | 55.94901 | -3.36731 | 112 ft | 1 kts | 59° |
| 2026-05-01 14:33 | 55.94907 | -3.36711 | 113 ft | 4 kts | 59° |
| 2026-05-01 14:34 | 55.94937 | -3.36622 | 116 ft | 11 kts | 59° |
| 2026-05-01 14:34 | 55.94982 | -3.36490 | 116 ft | 14 kts | 59° |
| 2026-05-01 14:34 | 55.95054 | -3.36391 | 115 ft | 14 kts | 346° |
| 2026-05-01 14:34 | 55.95125 | -3.36311 | 114 ft | 15 kts | 60° |
| 2026-05-01 14:35 | 55.95182 | -3.36143 | 112 ft | 17 kts | 56° |
| 2026-05-01 14:35 | 55.95248 | -3.35943 | 113 ft | 20 kts | 59° |
| 2026-05-01 14:35 | 55.95312 | -3.35756 | 115 ft | 15 kts | 59° |
| 2026-05-01 14:35 | 55.95371 | -3.35583 | 115 ft | 17 kts | 58° |
| 2026-05-01 14:36 | 55.95430 | -3.35419 | 114 ft | 10 kts | 47° |
| 2026-05-01 14:36 | 55.95479 | -3.35418 | 114 ft | 9 kts | 333° |
| 2026-05-01 14:36 | 55.95497 | -3.35438 | 114 ft | 0 kts | 328° |
| 2026-05-01 14:38 | 55.95506 | -3.35448 | 113 ft | 4 kts | 328° |
| 2026-05-01 14:39 | 55.95541 | -3.35487 | 114 ft | 9 kts | 328° |
| 2026-05-01 14:39 | 55.95561 | -3.35594 | 113 ft | 11 kts | 242° |
| 2026-05-01 14:39 | 55.95552 | -3.35621 | 112 ft | 0 kts | 239° |
| 2026-05-01 14:39 | 55.95546 | -3.35638 | 113 ft | 14 kts | 239° |
| 2026-05-01 14:40 | 55.95309 | -3.36338 | 111 ft | 114 kts | 239° |
| 2026-05-01 14:40 | 55.94775 | -3.37904 | 254 ft | 170 kts | 239° |
| 2026-05-01 14:40 | 55.94146 | -3.39711 | 1243 ft | 174 kts | 235° |
| 2026-05-01 14:40 | 55.93480 | -3.41574 | 1808 ft | 191 kts | 235° |
| 2026-05-01 14:41 | 55.92713 | -3.43747 | 2128 ft | 220 kts | 236° |
| 2026-05-01 14:41 | 55.91866 | -3.46188 | 2679 ft | 243 kts | 237° |
| 2026-05-01 14:41 | 55.90974 | -3.48765 | 3636 ft | 247 kts | 237° |
| 2026-05-01 14:41 | 55.90332 | -3.51650 | 4599 ft | 257 kts | 256° |
| 2026-05-01 14:42 | 55.90033 | -3.54817 | 5509 ft | 262 kts | 257° |
| 2026-05-01 14:42 | 55.89723 | -3.58034 | 5857 ft | 264 kts | 257° |
| 2026-05-01 14:42 | 55.89409 | -3.61257 | 5985 ft | 264 kts | 257° |
| 2026-05-01 14:42 | 55.89091 | -3.64473 | 6001 ft | 263 kts | 257° |
| 2026-05-01 14:43 | 55.88770 | -3.67687 | 5998 ft | 264 kts | 257° |
| 2026-05-01 14:43 | 55.88445 | -3.70900 | 6001 ft | 264 kts | 257° |
| 2026-05-01 14:43 | 55.88121 | -3.74108 | 5996 ft | 263 kts | 256° |
| 2026-05-01 14:43 | 55.87797 | -3.77324 | 5995 ft | 264 kts | 256° |
| 2026-05-01 14:44 | 55.87473 | -3.80573 | 6781 ft | 267 kts | 257° |
| 2026-05-01 14:44 | 55.86825 | -3.87134 | 8724 ft | 272 kts | 257° |
| 2026-05-01 14:44 | 55.86493 | -3.90475 | 9666 ft | 275 kts | 257° |
| 2026-05-01 14:45 | 55.86154 | -3.93865 | 10397 ft | 286 kts | 257° |
| 2026-05-01 14:45 | 55.85385 | -4.01350 | 11145 ft | 324 kts | 256° |
| 2026-05-01 14:45 | 55.84976 | -4.05349 | 11855 ft | 330 kts | 256° |
| 2026-05-01 14:46 | 55.84529 | -4.09372 | 12607 ft | 332 kts | 250° |
| 2026-05-01 14:46 | 55.82067 | -4.16122 | 14085 ft | 330 kts | 217° |
| 2026-05-01 14:46 | 55.80221 | -4.18430 | 14740 ft | 332 kts | 213° |
| 2026-05-01 14:47 | 55.78278 | -4.20782 | 15413 ft | 335 kts | 213° |
| 2026-05-01 14:47 | 55.76369 | -4.23126 | 16047 ft | 339 kts | 213° |
| 2026-05-01 14:47 | 55.74262 | -4.25176 | 16696 ft | 342 kts | 201° |
| 2026-05-01 14:48 | 55.69547 | -4.26158 | 17984 ft | 350 kts | 172° |
| 2026-05-01 14:48 | 55.67194 | -4.24915 | 18604 ft | 358 kts | 158° |
| 2026-05-01 14:48 | 55.62754 | -4.20712 | 19861 ft | 365 kts | 154° |
| 2026-05-01 14:49 | 55.58307 | -4.16285 | 21147 ft | 369 kts | 153° |
| 2026-05-01 14:49 | 55.53794 | -4.11806 | 22361 ft | 374 kts | 154° |
| 2026-05-01 14:50 | 55.50767 | -4.08852 | 23146 ft | 377 kts | 154° |
| 2026-05-01 14:50 | 55.44547 | -4.02838 | 24454 ft | 385 kts | 154° |
| 2026-05-01 14:51 | 55.42192 | -4.00562 | 24877 ft | 388 kts | 154° |
| 2026-05-01 14:51 | 55.37426 | -3.95949 | 25118 ft | 394 kts | 154° |
| 2026-05-01 14:52 | 55.32641 | -3.91318 | 25125 ft | 396 kts | 154° |
| 2026-05-01 14:52 | 55.30226 | -3.88989 | 25130 ft | 396 kts | 154° |
| 2026-05-01 14:52 | 55.25388 | -3.84345 | 25120 ft | 399 kts | 153° |
| 2026-05-01 14:53 | 55.22941 | -3.82004 | 25129 ft | 401 kts | 153° |
| 2026-05-01 14:53 | 55.20492 | -3.79658 | 25129 ft | 402 kts | 153° |
| 2026-05-01 14:53 | 55.18042 | -3.77309 | 25128 ft | 402 kts | 153° |
| 2026-05-01 14:53 | 55.15591 | -3.74961 | 25133 ft | 402 kts | 153° |
| 2026-05-01 14:54 | 55.13137 | -3.72615 | 25135 ft | 402 kts | 154° |
| 2026-05-01 14:54 | 55.10683 | -3.70278 | 25132 ft | 402 kts | 154° |
| 2026-05-01 14:54 | 55.08225 | -3.67946 | 25141 ft | 402 kts | 154° |
| 2026-05-01 14:54 | 55.05771 | -3.65621 | 25140 ft | 402 kts | 154° |
| 2026-05-01 14:55 | 55.03315 | -3.63295 | 25133 ft | 401 kts | 154° |
| 2026-05-01 14:55 | 55.00863 | -3.60973 | 25130 ft | 401 kts | 154° |
| 2026-05-01 14:55 | 54.98410 | -3.58648 | 25133 ft | 401 kts | 154° |
| 2026-05-01 14:55 | 54.95954 | -3.56327 | 25130 ft | 401 kts | 154° |
| 2026-05-01 14:56 | 54.93500 | -3.54017 | 25130 ft | 401 kts | 154° |
| 2026-05-01 14:56 | 54.91048 | -3.51713 | 25132 ft | 401 kts | 154° |
| 2026-05-01 14:56 | 54.88590 | -3.49405 | 25141 ft | 401 kts | 154° |
| 2026-05-01 14:56 | 54.86136 | -3.47103 | 25136 ft | 401 kts | 154° |
| 2026-05-01 14:57 | 54.84514 | -3.45581 | 25140 ft | 401 kts | 154° |
| 2026-05-01 14:57 | 54.78775 | -3.40203 | 25137 ft | 401 kts | 154° |
| 2026-05-01 14:57 | 54.76319 | -3.37910 | 25140 ft | 401 kts | 154° |
| 2026-05-01 14:58 | 54.73865 | -3.35624 | 25143 ft | 401 kts | 154° |
| 2026-05-01 14:58 | 54.71394 | -3.33374 | 25142 ft | 400 kts | 155° |
| 2026-05-01 14:58 | 54.68880 | -3.31308 | 25140 ft | 400 kts | 158° |
| 2026-05-01 14:58 | 54.66330 | -3.29386 | 25141 ft | 400 kts | 159° |
| 2026-05-01 14:59 | 54.63775 | -3.27544 | 25000 ft | 393 kts | 160° |
| 2026-05-01 14:59 | 54.61279 | -3.25763 | 24760 ft | 386 kts | 159° |
| 2026-05-01 14:59 | 54.58807 | -3.23983 | 24521 ft | 384 kts | 159° |
| 2026-05-01 14:59 | 54.56351 | -3.22191 | 24262 ft | 383 kts | 159° |
| 2026-05-01 15:00 | 54.51453 | -3.18550 | 23792 ft | 383 kts | 159° |
| 2026-05-01 15:00 | 54.49015 | -3.16723 | 23540 ft | 382 kts | 159° |
| 2026-05-01 15:00 | 54.46582 | -3.14902 | 23265 ft | 381 kts | 159° |
| 2026-05-01 15:01 | 54.44159 | -3.13096 | 22985 ft | 378 kts | 159° |
| 2026-05-01 15:01 | 54.41750 | -3.11304 | 22714 ft | 377 kts | 159° |
| 2026-05-01 15:01 | 54.39350 | -3.09526 | 22451 ft | 375 kts | 159° |
| 2026-05-01 15:01 | 54.36959 | -3.07760 | 22184 ft | 373 kts | 159° |
| 2026-05-01 15:02 | 54.34576 | -3.05997 | 21922 ft | 372 kts | 159° |
| 2026-05-01 15:02 | 54.33806 | -3.05429 | 21836 ft | 371 kts | 159° |
| 2026-05-01 15:02 | 54.29851 | -3.02511 | 21382 ft | 366 kts | 159° |
| 2026-05-01 15:02 | 54.27524 | -3.00795 | 20915 ft | 363 kts | 159° |
| 2026-05-01 15:03 | 54.25216 | -2.99096 | 20417 ft | 360 kts | 159° |
| 2026-05-01 15:03 | 54.22996 | -2.97124 | 19916 ft | 360 kts | 150° |
| 2026-05-01 15:03 | 54.20903 | -2.94764 | 19344 ft | 360 kts | 149° |
| 2026-05-01 15:03 | 54.18842 | -2.92440 | 18793 ft | 359 kts | 149° |
| 2026-05-01 15:04 | 54.16757 | -2.90097 | 18217 ft | 359 kts | 149° |
| 2026-05-01 15:04 | 54.14677 | -2.87765 | 17638 ft | 356 kts | 149° |
| 2026-05-01 15:04 | 54.12619 | -2.85461 | 17088 ft | 352 kts | 149° |
| 2026-05-01 15:04 | 54.10580 | -2.83178 | 16554 ft | 349 kts | 149° |
| 2026-05-01 15:05 | 54.08562 | -2.80920 | 16011 ft | 345 kts | 149° |
| 2026-05-01 15:05 | 54.06564 | -2.78689 | 15481 ft | 343 kts | 149° |
| 2026-05-01 15:05 | 54.04577 | -2.76471 | 14948 ft | 340 kts | 149° |
| 2026-05-01 15:05 | 54.02606 | -2.74276 | 14430 ft | 337 kts | 149° |
| 2026-05-01 15:06 | 54.00648 | -2.72102 | 13905 ft | 335 kts | 149° |
| 2026-05-01 15:06 | 53.99331 | -2.70642 | 13523 ft | 333 kts | 149° |
| 2026-05-01 15:06 | 53.97401 | -2.68498 | 12999 ft | 330 kts | 149° |
| 2026-05-01 15:06 | 53.95494 | -2.66378 | 12494 ft | 325 kts | 149° |
| 2026-05-01 15:07 | 53.93612 | -2.64290 | 11995 ft | 322 kts | 149° |
| 2026-05-01 15:07 | 53.91750 | -2.62230 | 11604 ft | 315 kts | 149° |
| 2026-05-01 15:07 | 53.89953 | -2.60243 | 11466 ft | 302 kts | 149° |
| 2026-05-01 15:07 | 53.88231 | -2.58341 | 11338 ft | 290 kts | 149° |
| 2026-05-01 15:08 | 53.86592 | -2.56531 | 11206 ft | 281 kts | 149° |
| 2026-05-01 15:08 | 53.84974 | -2.54744 | 10982 ft | 275 kts | 150° |
| 2026-05-01 15:08 | 53.83380 | -2.52988 | 10725 ft | 272 kts | 150° |
| 2026-05-01 15:08 | 53.81788 | -2.51241 | 10295 ft | 275 kts | 150° |
| 2026-05-01 15:09 | 53.80185 | -2.49484 | 9960 ft | 272 kts | 150° |
| 2026-05-01 15:09 | 53.78603 | -2.47748 | 9583 ft | 272 kts | 150° |
| 2026-05-01 15:09 | 53.77022 | -2.46014 | 9197 ft | 269 kts | 150° |
| 2026-05-01 15:09 | 53.75435 | -2.44273 | 8622 ft | 267 kts | 150° |
| 2026-05-01 15:10 | 53.73898 | -2.42589 | 8063 ft | 267 kts | 150° |
| 2026-05-01 15:10 | 53.70835 | -2.39233 | 7169 ft | 258 kts | 150° |
| 2026-05-01 15:10 | 53.69368 | -2.37629 | 7018 ft | 244 kts | 150° |
| 2026-05-01 15:11 | 53.67979 | -2.36108 | 6968 ft | 232 kts | 150° |
| 2026-05-01 15:11 | 53.65532 | -2.32336 | 6739 ft | 243 kts | 135° |
| 2026-05-01 15:11 | 53.64422 | -2.30186 | 6487 ft | 243 kts | 135° |
| 2026-05-01 15:12 | 53.63317 | -2.28043 | 6231 ft | 241 kts | 135° |
| 2026-05-01 15:12 | 53.61142 | -2.23829 | 5760 ft | 235 kts | 135° |
| 2026-05-01 15:12 | 53.60074 | -2.21773 | 5536 ft | 232 kts | 135° |
| 2026-05-01 15:13 | 53.56963 | -2.15792 | 4880 ft | 220 kts | 135° |
| 2026-05-01 15:14 | 53.55068 | -2.12152 | 4462 ft | 196 kts | 135° |
| 2026-05-01 15:14 | 53.54177 | -2.10448 | 4373 ft | 193 kts | 135° |
| 2026-05-01 15:14 | 53.52402 | -2.07063 | 4202 ft | 193 kts | 135° |
| 2026-05-01 15:15 | 53.50623 | -2.03670 | 4001 ft | 188 kts | 136° |
| 2026-05-01 15:15 | 53.48476 | -2.02267 | 3758 ft | 154 kts | 187° |
| 2026-05-01 15:16 | 53.46758 | -2.03799 | 3527 ft | 139 kts | 230° |
| 2026-05-01 15:16 | 53.45553 | -2.06318 | 3213 ft | 137 kts | 228° |
| 2026-05-01 15:17 | 53.44345 | -2.08841 | 2840 ft | 139 kts | 230° |
| 2026-05-01 15:18 | 53.42545 | -2.12594 | 2294 ft | 137 kts | 232° |
| 2026-05-01 15:18 | 53.41952 | -2.13829 | 2115 ft | 135 kts | 231° |
| 2026-05-01 15:19 | 53.40199 | -2.17478 | 1599 ft | 134 kts | 232° |
| 2026-05-01 15:19 | 53.39054 | -2.19856 | 1175 ft | 131 kts | 232° |
| 2026-05-01 15:19 | 53.38488 | -2.21031 | 1030 ft | 128 kts | 233° |
| 2026-05-01 15:20 | 53.37370 | -2.23353 | 717 ft | 127 kts | 236° |
| 2026-05-01 15:20 | 53.36808 | -2.24509 | 506 ft | 132 kts | 237° |
| 2026-05-01 15:20 | 53.36230 | -2.25717 | 334 ft | 134 kts | 235° |
| 2026-05-01 15:21 | 53.35680 | -2.26874 | 267 ft | 113 kts | 231° |
| 2026-05-01 15:21 | 53.35268 | -2.27719 | 251 ft | 77 kts | 231° |
| 2026-05-01 15:21 | 53.35035 | -2.28197 | 237 ft | 36 kts | 235° |
| 2026-05-01 15:21 | 53.34958 | -2.28499 | 237 ft | 19 kts | 262° |
| 2026-05-01 15:22 | 53.34968 | -2.28745 | 231 ft | 10 kts | 322° |
| 2026-05-01 15:22 | 53.35037 | -2.28702 | 232 ft | 12 kts | 46° |
| 2026-05-01 15:22 | 53.35094 | -2.28586 | 233 ft | 14 kts | 51° |
| 2026-05-01 15:23 | 53.35166 | -2.28436 | 231 ft | 18 kts | 51° |
| 2026-05-01 15:23 | 53.35234 | -2.28295 | 234 ft | 16 kts | 51° |
| 2026-05-01 15:23 | 53.35311 | -2.28163 | 238 ft | 15 kts | 51° |
| 2026-05-01 15:23 | 53.35328 | -2.28130 | 239 ft | 0 kts | 47° |
| 2026-05-01 15:24 | 53.35328 | -2.28129 | 239 ft | 2 kts | 47° |
| 2026-05-01 15:24 | 53.35362 | -2.28072 | 241 ft | 13 kts | 47° |
| 2026-05-01 15:24 | 53.35447 | -2.27936 | 245 ft | 18 kts | 44° |
| 2026-05-01 15:24 | 53.35474 | -2.27892 | 246 ft | 0 kts | 44° |
| 2026-05-01 15:25 | 53.35474 | -2.27891 | 246 ft | 0 kts | 44° |
| 2026-05-01 15:25 | 53.35481 | -2.27880 | 246 ft | 2 kts | 44° |
| 2026-05-01 15:26 | 53.35486 | -2.27872 | 247 ft | 0 kts | 44° |
| 2026-05-01 15:26 | 53.35500 | -2.27849 | 247 ft | 7 kts | 44° |
| 2026-05-01 15:26 | 53.35540 | -2.27785 | 248 ft | 9 kts | 42° |
| 2026-05-01 15:26 | 53.35594 | -2.27699 | 248 ft | 12 kts | 45° |
| 2026-05-01 15:27 | 53.35661 | -2.27609 | 248 ft | 13 kts | 16° |
| 2026-05-01 15:27 | 53.35723 | -2.27634 | 247 ft | 10 kts | 339° |
| 2026-05-01 15:27 | 53.35794 | -2.27698 | 247 ft | 13 kts | 320° |
| 2026-05-01 15:28 | 53.35836 | -2.27778 | 247 ft | 9 kts | 309° |
| 2026-05-01 15:28 | 53.35898 | -2.27848 | 247 ft | 13 kts | 358° |
| 2026-05-01 15:28 | 53.35987 | -2.27874 | 247 ft | 14 kts | 324° |
| 2026-05-01 15:29 | 53.36145 | -2.27961 | 247 ft | 12 kts | 311° |
| 2026-05-01 15:29 | 53.36199 | -2.28053 | 247 ft | 11 kts | 315° |
| 2026-05-01 15:29 | 53.36345 | -2.28013 | 247 ft | 11 kts | 41° |
| 2026-05-01 15:30 | 53.36394 | -2.27879 | 247 ft | 6 kts | 106° |
| 2026-05-01 15:31 | 53.36441 | -2.27735 | 247 ft | 0 kts | 44° |